Time;durP1;ratioP1;P1;durP2;ratioP2;P2;SDS_P1;SDS_P2;PMS_P1;PMS_P2;Temp;Humidity;BMP_temperature;BMP_pressure;BME280_temperature;BME280_humidity;BME280_pressure;Samples;Min_cycle;Max_cycle;Signal;HPM_P1;HPM_P2
2023/08/29 00:01:12;;;;;;;4.85;3.35;;;;;;;13.09;100.00;96664.59;4966755;28;20061;-61
2023/08/29 00:03:39;;;;;;;4.60;3.00;;;;;;;13.09;100.00;96678.19;4963944;28;20050;-61
2023/08/29 00:06:05;;;;;;;5.35;3.42;;;;;;;13.13;100.00;96682.75;4976547;28;20096;-61
2023/08/29 00:08:33;;;;;;;5.45;3.10;;;;;;;13.06;100.00;96689.63;4990899;28;20043;-62
2023/08/29 00:11:00;;;;;;;4.32;3.03;;;;;;;13.11;100.00;96690.41;4974239;28;20373;-61
2023/08/29 00:13:27;;;;;;;5.88;3.25;;;;;;;13.16;100.00;96691.44;4983049;28;20584;-62
2023/08/29 00:15:53;;;;;;;7.38;3.28;;;;;;;13.17;100.00;96690.34;4960338;28;20047;-61
2023/08/29 00:18:20;;;;;;;4.63;3.00;;;;;;;13.03;100.00;96692.91;4973234;28;20095;-62
2023/08/29 00:20:47;;;;;;;7.50;3.08;;;;;;;13.01;100.00;96695.91;4978225;28;20683;-62
2023/08/29 00:23:13;;;;;;;8.02;3.42;;;;;;;13.01;100.00;96685.03;5000470;28;20126;-61
2023/08/29 00:25:40;;;;;;;6.82;3.33;;;;;;;12.98;100.00;96680.19;5002469;28;20047;-61
2023/08/29 00:28:07;;;;;;;5.20;3.40;;;;;;;12.96;100.00;96676.94;4972185;28;20035;-62
2023/08/29 00:30:38;;;;;;;8.70;3.90;;;;;;;12.89;100.00;96669.09;4966772;28;20050;-62
2023/08/29 00:33:09;;;;;;;7.97;3.95;;;;;;;12.95;100.00;96667.16;4966725;28;20039;-61
2023/08/29 00:35:37;;;;;;;6.28;3.70;;;;;;;12.97;100.00;96678.56;4963225;28;20046;-61
2023/08/29 00:38:04;;;;;;;6.05;3.85;;;;;;;13.03;100.00;96673.88;4996390;28;20061;-61
2023/08/29 00:40:32;;;;;;;6.72;3.92;;;;;;;13.00;100.00;96670.66;4973887;28;20042;-61
2023/08/29 00:42:59;;;;;;;5.80;3.95;;;;;;;13.08;100.00;96679.28;4981070;28;20042;-61
2023/08/29 00:45:30;;;;;;;7.45;4.63;;;;;;;13.04;100.00;96687.19;5009419;28;20046;-61
2023/08/29 00:47:57;;;;;;;7.25;4.28;;;;;;;13.04;100.00;96695.34;4975002;28;20053;-61
2023/08/29 00:50:25;;;;;;;6.32;4.35;;;;;;;13.02;100.00;96692.09;4948980;28;20046;-62
2023/08/29 00:52:57;;;;;;;8.80;4.47;;;;;;;13.01;100.00;96691.28;4978481;28;20042;-61
2023/08/29 00:55:27;;;;;;;7.22;3.85;;;;;;;12.99;100.00;96693.50;4993353;28;20043;-61
2023/08/29 00:57:59;;;;;;;6.20;3.72;;;;;;;13.04;100.00;96689.13;4967027;28;20100;-61
2023/08/29 01:00:28;;;;;;;6.03;4.18;;;;;;;13.03;100.00;96691.00;4962204;28;20051;-61
2023/08/29 01:02:55;;;;;;;6.70;4.57;;;;;;;13.05;100.00;96683.38;4968386;28;20532;-60
2023/08/29 01:05:22;;;;;;;8.50;4.65;;;;;;;13.05;100.00;96688.81;5003341;28;20078;-60
2023/08/29 01:07:51;;;;;;;7.30;4.30;;;;;;;13.05;100.00;96686.09;4968873;28;20498;-61
2023/08/29 01:10:31;;;;;;;7.70;4.43;;;;;;;13.10;100.00;96691.50;4986743;28;20041;-61
2023/08/29 01:13:26;;;;;;;6.28;4.18;;;;;;;13.04;100.00;96680.97;4972491;28;20047;-61
2023/08/29 01:15:56;;;;;;;8.32;4.30;;;;;;;12.97;100.00;96682.09;4951288;28;20069;-62
2023/08/29 01:18:26;;;;;;;7.97;4.32;;;;;;;13.03;100.00;96685.56;4972891;28;20129;-62
2023/08/29 01:21:01;;;;;;;;;;;;;;;13.10;100.00;96693.41;4973391;28;20141;-61
2023/08/29 01:23:43;;;;;;;7.22;4.55;;;;;;;13.07;100.00;96685.81;4986593;28;19966;-61
2023/08/29 01:26:13;;;;;;;5.72;3.92;;;;;;;13.08;100.00;96682.81;4974965;28;20529;-61
2023/08/29 01:28:42;;;;;;;5.70;4.07;;;;;;;13.13;100.00;96680.03;4969554;28;20041;-61
2023/08/29 01:31:10;;;;;;;7.55;4.22;;;;;;;13.16;100.00;96678.66;5002908;28;20169;-61
2023/08/29 01:33:38;;;;;;;6.10;4.35;;;;;;;13.17;100.00;96679.47;4985574;28;20076;-62
2023/08/29 01:36:06;;;;;;;6.65;4.70;;;;;;;13.13;100.00;96687.41;4953947;28;20043;-61
2023/08/29 01:38:33;;;;;;;8.52;4.90;;;;;;;13.14;100.00;96686.28;4962822;28;20050;-61
2023/08/29 01:41:00;;;;;;;6.97;4.53;;;;;;;13.20;100.00;96690.56;4962866;28;20058;-61
2023/08/29 01:43:26;;;;;;;6.55;4.38;;;;;;;13.20;100.00;96685.13;4988769;28;20040;-62
2023/08/29 01:45:53;;;;;;;10.63;3.97;;;;;;;13.19;100.00;96688.97;4963429;28;20043;-61
2023/08/29 01:48:21;;;;;;;6.43;4.13;;;;;;;13.18;100.00;96684.63;4977248;28;20035;-62
2023/08/29 01:50:48;;;;;;;8.38;4.07;;;;;;;13.17;100.00;96679.47;4963005;28;20050;-61
2023/08/29 01:53:15;;;;;;;6.38;4.03;;;;;;;13.13;100.00;96674.59;4980260;28;20036;-61
2023/08/29 01:55:43;;;;;;;6.03;3.90;;;;;;;13.13;100.00;96668.38;4970644;28;21054;-61
2023/08/29 01:58:12;;;;;;;6.95;3.83;;;;;;;13.14;100.00;96669.97;4967308;28;20039;-61
2023/08/29 02:00:40;;;;;;;7.78;4.00;;;;;;;13.08;100.00;96671.94;4966063;28;20453;-61
2023/08/29 02:03:06;;;;;;;5.55;3.72;;;;;;;13.09;100.00;96670.84;4974327;28;20054;-61
2023/08/29 02:05:33;;;;;;;6.60;4.05;;;;;;;13.14;100.00;96661.84;4972103;28;20050;-61
2023/08/29 02:08:00;;;;;;;5.50;3.83;;;;;;;13.14;100.00;96659.94;4973132;28;20565;-61
2023/08/29 02:10:30;;;;;;;6.13;3.70;;;;;;;13.10;100.00;96656.16;4978492;28;20057;-61
2023/08/29 02:12:57;;;;;;;6.78;3.33;;;;;;;13.14;100.00;96653.69;4965378;28;20574;-62
2023/08/29 02:15:23;;;;;;;5.97;3.67;;;;;;;13.18;100.00;96656.63;4994434;28;20050;-61
2023/08/29 02:17:51;;;;;;;5.93;3.50;;;;;;;13.19;100.00;96656.34;5014435;28;20042;-61
2023/08/29 02:20:18;;;;;;;5.10;3.50;;;;;;;13.13;100.00;96652.84;4960944;28;20478;-60
2023/08/29 02:22:44;;;;;;;5.78;3.72;;;;;;;13.11;100.00;96659.69;4959711;28;20701;-61
2023/08/29 02:25:11;;;;;;;4.75;3.40;;;;;;;13.05;100.00;96653.47;4996997;28;20513;-61
2023/08/29 02:27:38;;;;;;;8.05;4.03;;;;;;;13.14;100.00;96656.41;4960522;28;20489;-61
2023/08/29 02:30:05;;;;;;;4.65;3.25;;;;;;;13.10;100.00;96648.00;4963140;28;20050;-61
2023/08/29 02:32:34;;;;;;;5.97;3.47;;;;;;;13.10;100.00;96645.28;4961209;28;20039;-61
2023/08/29 02:35:02;;;;;;;6.32;3.58;;;;;;;12.99;100.00;96646.47;4981321;28;20140;-61
2023/08/29 02:37:29;;;;;;;6.22;3.65;;;;;;;12.90;100.00;96648.97;4973409;28;20043;-60
2023/08/29 02:39:56;;;;;;;6.00;3.80;;;;;;;12.87;100.00;96647.66;4960377;28;20408;-61
2023/08/29 02:42:23;;;;;;;5.22;4.03;;;;;;;12.85;100.00;96646.31;4969522;28;20078;-62
2023/08/29 02:44:49;;;;;;;5.72;3.90;;;;;;;12.91;100.00;96645.19;4984082;28;20078;-62
2023/08/29 02:47:16;;;;;;;7.65;4.95;;;;;;;12.94;100.00;96641.88;4972623;28;20039;-61
2023/08/29 02:49:43;;;;;;;7.93;4.60;;;;;;;12.96;100.00;96649.75;4960590;28;21197;-62
2023/08/29 02:52:09;;;;;;;6.00;4.55;;;;;;;12.99;100.00;96643.75;4961516;28;20038;-61
2023/08/29 02:54:36;;;;;;;8.63;4.47;;;;;;;12.95;100.00;96643.53;4977051;28;20153;-62
2023/08/29 02:57:03;;;;;;;8.70;4.32;;;;;;;12.96;100.00;96642.44;4972955;28;20074;-61
2023/08/29 02:59:30;;;;;;;7.15;5.10;;;;;;;12.98;100.00;96636.72;4963136;28;20080;-62
2023/08/29 03:01:57;;;;;;;10.05;5.72;;;;;;;12.98;100.00;96642.16;4971334;28;20506;-62
2023/08/29 03:04:24;;;;;;;9.45;6.15;;;;;;;12.95;100.00;96637.28;4980330;28;20038;-62
2023/08/29 03:06:51;;;;;;;10.63;6.05;;;;;;;13.00;100.00;96631.78;4989883;28;20079;-62
2023/08/29 03:09:18;;;;;;;7.10;5.72;;;;;;;13.03;100.00;96639.38;4986441;28;20704;-62
2023/08/29 03:11:44;;;;;;;7.40;5.75;;;;;;;12.99;100.00;96638.31;4960343;28;20039;-62
2023/08/29 03:14:11;;;;;;;8.70;6.57;;;;;;;12.99;100.00;96647.31;4973569;28;20051;-62
2023/08/29 03:16:37;;;;;;;9.63;6.55;;;;;;;13.04;100.00;96641.00;4959801;28;20122;-62
2023/08/29 03:19:04;;;;;;;7.32;5.63;;;;;;;12.97;100.00;96645.97;4966215;28;21261;-61
2023/08/29 03:21:31;;;;;;;10.00;6.70;;;;;;;12.95;100.00;96634.56;4969701;28;20108;-62
2023/08/29 03:23:57;;;;;;;8.35;6.38;;;;;;;12.87;100.00;96631.34;4976795;28;20142;-62
2023/08/29 03:26:24;;;;;;;8.63;6.38;;;;;;;12.91;100.00;96628.06;4975272;28;20549;-62
2023/08/29 03:28:51;;;;;;;8.98;7.40;;;;;;;12.87;100.00;96623.19;4982532;28;20442;-62
2023/08/29 03:31:17;;;;;;;10.98;7.15;;;;;;;12.80;100.00;96620.03;4969641;28;20034;-62
2023/08/29 03:33:44;;;;;;;10.05;6.25;;;;;;;12.83;100.00;96624.88;4973469;28;20627;-62
2023/08/29 03:36:11;;;;;;;10.70;7.47;;;;;;;12.81;100.00;96621.63;4954774;28;20611;-62
2023/08/29 03:38:39;;;;;;;10.15;6.80;;;;;;;12.82;100.00;96622.44;4984674;28;20040;-62
2023/08/29 03:41:07;;;;;;;8.40;6.55;;;;;;;12.90;100.00;96623.75;4964291;28;20133;-62
2023/08/29 03:43:35;;;;;;;10.32;7.63;;;;;;;12.89;100.00;96628.34;4983665;28;20040;-62
2023/08/29 03:46:06;;;;;;;11.07;7.40;;;;;;;12.93;100.00;96629.41;4971665;28;20147;-62
2023/08/29 03:48:33;;;;;;;;;;;;;;;12.95;100.00;96623.69;4974321;28;20037;-62
2023/08/29 03:51:07;;;;;;;13.07;8.50;;;;;;;12.90;100.00;96631.88;4963362;28;19930;-62
2023/08/29 03:53:35;;;;;;;11.63;7.65;;;;;;;12.88;100.00;96632.16;4992680;28;20508;-62
2023/08/29 03:56:05;;;;;;;10.40;7.68;;;;;;;12.90;100.00;96631.88;4962252;28;20055;-61
2023/08/29 03:58:32;;;;;;;10.35;8.50;;;;;;;12.79;100.00;96625.75;4970076;28;20141;-61
2023/08/29 04:00:59;;;;;;;14.75;8.57;;;;;;;12.74;100.00;96632.00;4978358;28;20043;-62
2023/08/29 04:03:26;;;;;;;9.23;7.82;;;;;;;12.76;100.00;96627.13;4978152;28;20132;-62
2023/08/29 04:05:53;;;;;;;10.02;7.88;;;;;;;12.77;100.00;96626.03;4964585;28;20515;-61
2023/08/29 04:08:20;;;;;;;12.18;8.77;;;;;;;12.71;100.00;96621.72;4989043;28;20044;-62
2023/08/29 04:10:47;;;;;;;11.02;7.78;;;;;;;12.65;100.00;96622.84;4982990;28;20046;-62
2023/08/29 04:13:14;;;;;;;12.88;8.27;;;;;;;12.67;100.00;96623.38;4969127;28;20038;-62
2023/08/29 04:15:41;;;;;;;11.85;8.18;;;;;;;12.72;100.00;96631.50;4979228;28;20096;-62
2023/08/29 04:18:08;;;;;;;11.10;8.02;;;;;;;12.72;100.00;96618.72;4962961;28;20039;-62
2023/08/29 04:20:35;;;;;;;12.30;8.48;;;;;;;12.68;100.00;96633.16;4972981;28;20066;-62
2023/08/29 04:23:06;;;;;;;11.68;7.95;;;;;;;12.64;100.00;96623.97;4968043;28;20414;-62
2023/08/29 04:25:34;;;;;;;;;;;;;;;12.65;100.00;96618.25;4977966;28;20043;-62
2023/08/29 04:28:00;;;;;;;11.95;8.00;;;;;;;12.67;100.00;96624.19;4966558;28;19929;-62
2023/08/29 04:30:27;;;;;;;11.52;8.68;;;;;;;12.66;100.00;96630.72;4963685;28;20043;-62
2023/08/29 04:32:55;;;;;;;13.15;8.57;;;;;;;12.63;100.00;96616.91;4963396;28;20129;-62
2023/08/29 04:35:21;;;;;;;11.85;8.60;;;;;;;12.59;100.00;96620.19;4969355;28;20039;-62
2023/08/29 04:37:48;;;;;;;11.40;8.30;;;;;;;12.51;100.00;96626.22;4964166;28;20097;-62
2023/08/29 04:40:17;;;;;;;11.55;7.72;;;;;;;12.53;100.00;96617.78;4963429;28;20043;-61
2023/08/29 04:42:44;;;;;;;13.20;9.20;;;;;;;12.46;100.00;96613.47;4972288;28;20053;-62
2023/08/29 04:45:12;;;;;;;13.70;9.27;;;;;;;12.52;100.00;96621.59;4982308;28;20042;-61
2023/08/29 04:47:39;;;;;;;12.27;8.50;;;;;;;12.56;100.00;96626.19;4992455;28;20510;-61
2023/08/29 04:50:07;;;;;;;17.80;9.30;;;;;;;12.57;100.00;96624.28;4973364;28;20145;-61
2023/08/29 04:52:34;;;;;;;17.02;9.20;;;;;;;12.56;100.00;96615.31;4964545;28;20498;-62
2023/08/29 04:55:01;;;;;;;11.32;8.18;;;;;;;12.58;100.00;96624.00;4973336;28;20042;-61
2023/08/29 04:57:27;;;;;;;10.93;9.02;;;;;;;12.61;100.00;96626.13;4970859;28;20635;-62
2023/08/29 04:59:54;;;;;;;12.55;9.23;;;;;;;12.63;100.00;96625.06;4976295;28;20055;-62
2023/08/29 05:02:21;;;;;;;11.93;8.90;;;;;;;12.63;100.00;96623.13;4961758;28;20644;-62
2023/08/29 05:04:48;;;;;;;12.43;9.60;;;;;;;12.66;100.00;96617.16;4961682;28;20053;-62
2023/08/29 05:07:15;;;;;;;13.70;9.25;;;;;;;12.68;100.00;96614.94;4972800;28;20175;-61
2023/08/29 05:09:42;;;;;;;11.32;8.95;;;;;;;12.69;100.00;96613.03;4968603;28;20032;-62
2023/08/29 05:12:10;;;;;;;9.95;8.45;;;;;;;12.59;100.00;96612.03;4977837;28;20042;-62
2023/08/29 05:14:38;;;;;;;10.50;8.75;;;;;;;12.71;100.00;96614.38;4974130;28;20046;-62
2023/08/29 05:17:06;;;;;;;11.23;8.80;;;;;;;12.72;100.00;96616.00;4995127;28;20052;-62
2023/08/29 05:19:33;;;;;;;10.13;8.13;;;;;;;12.77;100.00;96611.63;4973302;28;20046;-62
2023/08/29 05:22:00;;;;;;;12.15;8.18;;;;;;;12.66;100.00;96609.00;4983951;28;20051;-62
2023/08/29 05:24:26;;;;;;;12.60;8.63;;;;;;;12.69;100.00;96605.72;4987840;28;20166;-62
2023/08/29 05:26:53;;;;;;;10.18;8.25;;;;;;;12.71;100.00;96616.28;4953808;28;20057;-62
2023/08/29 05:29:20;;;;;;;10.27;8.35;;;;;;;12.73;100.00;96620.34;4969927;28;20729;-62
2023/08/29 05:31:47;;;;;;;11.75;8.07;;;;;;;12.72;100.00;96618.72;4960539;28;20544;-62
2023/08/29 05:34:13;;;;;;;9.80;7.97;;;;;;;12.73;100.00;96609.50;4969187;28;20554;-61
2023/08/29 05:36:40;;;;;;;10.75;8.27;;;;;;;12.75;100.00;96628.19;4978379;28;20035;-62
2023/08/29 05:39:07;;;;;;;11.55;8.80;;;;;;;12.79;100.00;96618.38;5001678;28;20047;-61
2023/08/29 05:41:34;;;;;;;10.18;7.45;;;;;;;12.92;100.00;96618.81;4962447;28;20053;-62
2023/08/29 05:44:00;;;;;;;9.18;7.10;;;;;;;13.03;100.00;96625.78;4972400;28;20042;-61
2023/08/29 05:46:27;;;;;;;14.35;8.23;;;;;;;13.12;100.00;96618.63;4965736;28;20042;-62
2023/08/29 05:48:54;;;;;;;8.73;7.22;;;;;;;13.19;100.00;96614.78;4976596;28;20046;-62
2023/08/29 05:51:21;;;;;;;10.48;7.50;;;;;;;13.23;100.00;96618.53;4977598;28;20565;-62
2023/08/29 05:53:47;;;;;;;9.55;7.63;;;;;;;13.26;100.00;96617.94;4971986;28;20057;-62
2023/08/29 05:56:14;;;;;;;11.07;7.07;;;;;;;13.22;100.00;96620.44;4960084;28;20124;-61
2023/08/29 05:58:41;;;;;;;8.93;7.10;;;;;;;13.25;100.00;96617.16;4979182;28;20048;-62
2023/08/29 06:01:08;;;;;;;11.10;8.73;;;;;;;13.19;100.00;96622.94;4955119;28;20078;-62
2023/08/29 06:03:36;;;;;;;10.77;8.20;;;;;;;13.17;100.00;96627.81;4971631;28;20043;-62
2023/08/29 06:06:03;;;;;;;10.25;8.00;;;;;;;13.18;100.00;96637.59;4962934;28;20043;-62
2023/08/29 06:08:33;;;;;;;10.35;7.68;;;;;;;13.05;100.00;96631.72;4970389;28;20040;-62
2023/08/29 06:11:00;;;;;;;9.50;7.90;;;;;;;13.03;100.00;96633.13;4972879;28;20039;-62
2023/08/29 06:13:27;;;;;;;11.30;8.50;;;;;;;13.06;100.00;96635.28;4975064;28;20126;-62
2023/08/29 06:15:54;;;;;;;10.65;8.80;;;;;;;13.01;100.00;96627.97;4961470;28;20624;-62
2023/08/29 06:18:21;;;;;;;15.35;9.15;;;;;;;12.94;100.00;96624.78;4969788;28;20083;-61
2023/08/29 06:20:47;;;;;;;11.30;9.40;;;;;;;13.05;100.00;96636.38;4976078;28;20774;-62
2023/08/29 06:23:14;;;;;;;10.70;8.52;;;;;;;13.06;100.00;96638.00;4960817;28;20096;-62
2023/08/29 06:25:41;;;;;;;9.40;8.35;;;;;;;13.12;100.00;96642.28;4990959;28;20121;-62
2023/08/29 06:28:08;;;;;;;13.60;8.30;;;;;;;12.91;100.00;96631.63;4970659;28;20050;-62
2023/08/29 06:30:35;;;;;;;11.88;9.13;;;;;;;13.10;100.00;96642.56;4962273;28;20035;-61
2023/08/29 06:33:06;;;;;;;11.43;8.90;;;;;;;13.20;100.00;96649.00;4960834;28;20051;-59
2023/08/29 06:35:38;;;;;;;8.88;6.88;;;;;;;13.29;100.00;96643.75;4977319;28;20507;-62
2023/08/29 06:38:05;;;;;;;8.98;7.60;;;;;;;13.38;100.00;96650.97;4969936;28;20137;-62
2023/08/29 06:40:31;;;;;;;13.43;8.20;;;;;;;13.31;100.00;96653.25;4957795;28;20131;-61
2023/08/29 06:42:58;;;;;;;11.50;7.75;;;;;;;13.31;100.00;96655.97;4969504;28;20047;-62
2023/08/29 06:45:25;;;;;;;10.18;7.75;;;;;;;13.28;100.00;96656.53;4968007;28;20051;-62
2023/08/29 06:47:52;;;;;;;10.38;8.00;;;;;;;13.14;100.00;96653.69;4962392;28;20051;-62
2023/08/29 06:50:19;;;;;;;10.25;7.90;;;;;;;13.23;100.00;96659.31;4961379;28;20046;-62
2023/08/29 06:52:45;;;;;;;10.32;8.60;;;;;;;13.20;100.00;96671.53;4958351;28;20050;-63
2023/08/29 06:55:13;;;;;;;10.90;8.15;;;;;;;13.19;100.00;96669.13;4994363;28;20066;-62
2023/08/29 06:57:39;;;;;;;9.57;7.50;;;;;;;13.11;100.00;96665.94;4973728;28;20049;-63
2023/08/29 07:00:06;;;;;;;9.82;7.90;;;;;;;13.17;100.00;96674.84;4964366;28;20568;-63
2023/08/29 07:02:33;;;;;;;10.27;8.15;;;;;;;13.11;100.00;96671.38;4977717;28;20118;-62
2023/08/29 07:05:00;;;;;;;11.52;8.82;;;;;;;13.13;100.00;96679.25;4961950;28;20058;-63
2023/08/29 07:07:26;;;;;;;11.57;8.82;;;;;;;13.17;100.00;96674.03;4972490;28;20450;-62
2023/08/29 07:09:53;;;;;;;10.07;8.90;;;;;;;13.14;100.00;96680.84;4980465;28;20042;-63
2023/08/29 07:12:20;;;;;;;13.25;10.00;;;;;;;13.18;100.00;96681.09;4974599;28;20063;-62
2023/08/29 07:14:47;;;;;;;13.25;10.48;;;;;;;13.18;100.00;96678.38;4969154;28;20502;-63
2023/08/29 07:17:13;;;;;;;14.10;10.45;;;;;;;13.27;100.00;96682.13;4990670;28;20053;-63
2023/08/29 07:19:40;;;;;;;12.70;9.23;;;;;;;13.35;100.00;96686.91;4967461;28;20042;-63
2023/08/29 07:22:07;;;;;;;10.15;8.52;;;;;;;13.42;100.00;96692.03;4964623;28;20053;-63
2023/08/29 07:24:49;;;;;;;12.65;9.05;;;;;;;13.42;100.00;96691.19;5006610;28;20795;-63
2023/08/29 07:27:16;;;;;;;11.15;9.85;;;;;;;13.49;100.00;96694.44;4996146;28;20046;-63
2023/08/29 07:29:43;;;;;;;10.52;9.40;;;;;;;13.48;100.00;96698.22;4964926;28;20095;-63
2023/08/29 07:32:09;;;;;;;11.35;9.30;;;;;;;13.54;100.00;96710.69;4965855;28;20061;-63
2023/08/29 07:34:39;;;;;;;11.80;9.90;;;;;;;13.55;100.00;96716.94;4978011;28;21179;-62
2023/08/29 07:37:06;;;;;;;12.25;9.88;;;;;;;13.63;100.00;96724.47;4971756;28;20047;-63
2023/08/29 07:39:34;;;;;;;12.90;9.10;;;;;;;13.44;100.00;96713.47;4970496;28;20096;-63
2023/08/29 07:42:00;;;;;;;12.43;8.48;;;;;;;13.45;100.00;96726.00;4965576;28;20043;-63
2023/08/29 07:44:27;;;;;;;11.00;9.05;;;;;;;13.49;100.00;96725.16;4979027;28;20054;-63
2023/08/29 07:46:54;;;;;;;11.30;9.05;;;;;;;13.44;100.00;96727.88;4988170;28;20544;-62
2023/08/29 07:49:40;;;;;;;10.73;9.55;;;;;;;13.40;100.00;96729.56;4981243;28;20076;-62
2023/08/29 07:52:06;;;;;;;10.65;8.60;;;;;;;13.39;100.00;96725.22;4961526;28;20047;-62
2023/08/29 07:54:33;;;;;;;10.65;8.98;;;;;;;13.42;100.00;96729.28;4979878;28;20042;-63
2023/08/29 07:57:00;;;;;;;11.43;9.50;;;;;;;13.09;100.00;96733.34;4959363;28;20051;-62
2023/08/29 07:59:26;;;;;;;15.98;10.30;;;;;;;13.08;100.00;96731.72;4972813;28;20046;-63
2023/08/29 08:01:53;;;;;;;13.05;10.05;;;;;;;13.18;100.00;96739.00;4979347;28;20053;-62
2023/08/29 08:04:20;;;;;;;13.07;9.40;;;;;;;13.19;100.00;96737.88;4982117;28;20091;-63
2023/08/29 08:06:47;;;;;;;12.65;10.27;;;;;;;13.21;100.00;96746.59;4985135;28;20042;-62
2023/08/29 08:09:14;;;;;;;11.48;9.15;;;;;;;13.31;100.00;96740.25;4971834;28;20454;-63
2023/08/29 08:11:41;;;;;;;13.80;10.93;;;;;;;13.45;100.00;96761.34;4974123;28;20775;-63
2023/08/29 08:14:07;;;;;;;12.55;10.75;;;;;;;13.50;100.00;96759.38;4998212;28;20045;-60
2023/08/29 08:16:34;;;;;;;13.85;11.30;;;;;;;13.50;100.00;96745.00;4963377;28;20468;-61
2023/08/29 08:19:01;;;;;;;11.93;10.60;;;;;;;13.63;100.00;96751.66;4967170;28;20100;-60
2023/08/29 08:21:27;;;;;;;11.95;10.20;;;;;;;13.70;100.00;96741.25;4971899;28;20053;-61
2023/08/29 08:23:54;;;;;;;12.18;10.40;;;;;;;13.84;100.00;96751.47;4970672;28;20052;-62
2023/08/29 08:26:21;;;;;;;13.63;9.50;;;;;;;13.90;100.00;96742.16;4963607;28;20039;-63
2023/08/29 08:28:49;;;;;;;12.45;9.75;;;;;;;13.71;100.00;96742.88;4967168;28;20122;-63
2023/08/29 08:31:15;;;;;;;12.05;9.50;;;;;;;13.55;100.00;96736.78;4968838;28;20166;-60
2023/08/29 08:33:43;;;;;;;10.50;9.13;;;;;;;13.71;100.00;96752.97;4974684;28;20039;-61
2023/08/29 08:36:10;;;;;;;11.95;9.18;;;;;;;13.58;100.00;96747.09;4962841;28;20075;-60
2023/08/29 08:38:36;;;;;;;11.10;9.35;;;;;;;13.67;100.00;96744.56;4965810;28;20049;-59
2023/08/29 08:41:03;;;;;;;10.88;8.85;;;;;;;13.65;100.00;96749.47;4963090;28;20051;-61
2023/08/29 08:43:31;;;;;;;12.93;11.05;;;;;;;13.63;100.00;96757.94;4962792;28;20058;-59
2023/08/29 08:45:58;;;;;;;10.98;9.05;;;;;;;13.66;100.00;96764.69;4971822;28;20047;-62
2023/08/29 08:48:26;;;;;;;13.80;10.45;;;;;;;13.72;100.00;96758.13;4977880;28;20050;-62
2023/08/29 08:50:54;;;;;;;13.73;10.63;;;;;;;13.60;100.00;96765.84;4962533;28;20035;-62
2023/08/29 08:53:21;;;;;;;11.98;9.27;;;;;;;13.49;100.00;96756.97;4967264;28;20549;-63
2023/08/29 08:55:51;;;;;;;12.35;9.82;;;;;;;13.46;100.00;96760.25;4984000;28;20129;-63
2023/08/29 08:58:20;;;;;;;13.50;9.57;;;;;;;13.52;100.00;96759.09;4962375;28;20682;-62
2023/08/29 09:00:47;;;;;;;11.77;10.25;;;;;;;13.59;100.00;96775.91;4968549;28;20042;-63
2023/08/29 09:03:14;;;;;;;15.75;10.95;;;;;;;13.68;100.00;96758.97;4965343;28;20054;-63
2023/08/29 09:05:43;;;;;;;13.23;10.63;;;;;;;13.72;100.00;96751.84;4972004;28;20058;-63
2023/08/29 09:08:10;;;;;;;12.40;10.68;;;;;;;13.85;100.00;96758.50;4969611;28;21601;-62
2023/08/29 09:10:40;;;;;;;13.68;10.60;;;;;;;13.95;100.00;96763.88;4995712;28;20074;-62
2023/08/29 09:13:15;;;;;;;13.98;11.70;;;;;;;14.12;100.00;96760.66;4968903;28;20042;-61
2023/08/29 09:15:42;;;;;;;13.10;10.50;;;;;;;14.18;100.00;96758.69;4956947;28;20046;-61
2023/08/29 09:18:13;;;;;;;12.50;10.13;;;;;;;14.31;100.00;96749.81;4961303;28;20046;-61
2023/08/29 09:20:45;;;;;;;12.63;10.90;;;;;;;14.50;100.00;96753.69;4984559;28;20043;-62
2023/08/29 09:23:26;;;;;;;12.48;10.32;;;;;;;14.60;100.00;96755.47;4988236;28;20042;-63
2023/08/29 09:25:55;;;;;;;12.85;10.88;;;;;;;14.80;100.00;96759.84;4992968;28;20046;-63
2023/08/29 09:28:26;;;;;;;11.52;10.32;;;;;;;14.49;100.00;96754.78;4959918;28;20049;-60
2023/08/29 09:30:53;;;;;;;14.98;10.95;;;;;;;14.70;100.00;96756.13;4959374;28;20050;-62
2023/08/29 09:33:23;;;;;;;12.07;10.30;;;;;;;14.66;100.00;96746.91;4963014;28;20042;-63
2023/08/29 09:35:50;;;;;;;11.00;9.65;;;;;;;14.79;100.00;96755.50;5001351;28;20032;-60
2023/08/29 09:38:18;;;;;;;11.63;9.65;;;;;;;14.92;100.00;96752.03;4964362;28;20047;-60
2023/08/29 09:40:49;;;;;;;11.35;9.65;;;;;;;14.87;100.00;96756.75;4980257;28;20126;-61
2023/08/29 09:43:17;;;;;;;12.73;10.35;;;;;;;15.21;100.00;96755.69;4961158;28;20046;-61
2023/08/29 09:45:52;;;;;;;10.95;9.75;;;;;;;15.19;100.00;96758.69;4967849;28;20050;-60
2023/08/29 09:48:19;;;;;;;10.32;8.25;;;;;;;15.24;100.00;96755.09;4965772;28;20042;-61
2023/08/29 09:50:47;;;;;;;10.68;9.30;;;;;;;14.95;100.00;96754.16;4967210;28;20045;-60
2023/08/29 09:53:16;;;;;;;11.32;10.00;;;;;;;15.17;100.00;96762.84;4971421;28;20043;-61
2023/08/29 09:55:48;;;;;;;10.73;9.38;;;;;;;15.37;100.00;96753.50;4972807;28;20221;-61
2023/08/29 09:58:21;;;;;;;11.88;9.75;;;;;;;15.62;100.00;96756.91;4965556;28;20050;-60
2023/08/29 10:00:51;;;;;;;10.60;9.27;;;;;;;15.67;100.00;96758.75;4989944;28;20122;-61
2023/08/29 10:03:19;;;;;;;10.02;9.02;;;;;;;15.52;100.00;96760.59;4961246;28;20490;-60
2023/08/29 10:05:46;;;;;;;10.25;9.15;;;;;;;15.65;100.00;96759.03;4968945;28;20054;-61
2023/08/29 10:08:28;;;;;;;10.00;9.00;;;;;;;15.68;100.00;96761.16;4974445;28;20126;-61
2023/08/29 10:10:56;;;;;;;10.98;9.50;;;;;;;15.44;100.00;96767.56;5000428;28;20050;-60
2023/08/29 10:13:24;;;;;;;12.13;9.45;;;;;;;15.57;100.00;96763.28;4979932;28;20517;-60
2023/08/29 10:15:51;;;;;;;11.95;9.70;;;;;;;15.42;100.00;96766.25;4970723;28;20053;-60
2023/08/29 10:18:19;;;;;;;11.07;9.15;;;;;;;15.46;100.00;96767.28;4959686;28;20074;-60
2023/08/29 10:20:47;;;;;;;11.75;10.50;;;;;;;15.27;100.00;96759.97;4981638;28;20808;-61
2023/08/29 10:23:13;;;;;;;12.38;9.80;;;;;;;15.24;100.00;96762.44;4968136;28;20053;-61
2023/08/29 10:25:41;;;;;;;12.07;9.45;;;;;;;15.30;100.00;96766.72;4967208;28;20574;-60
2023/08/29 10:28:10;;;;;;;12.25;10.48;;;;;;;15.10;100.00;96763.22;4987263;28;20130;-60
2023/08/29 10:30:40;;;;;;;11.90;10.63;;;;;;;15.04;100.00;96769.88;4985643;28;20581;-60
2023/08/29 10:33:07;;;;;;;11.10;9.90;;;;;;;15.08;100.00;96766.22;4959685;28;20039;-60
2023/08/29 10:35:35;;;;;;;12.73;11.48;;;;;;;15.21;100.00;96764.69;4963660;28;20050;-60
2023/08/29 10:38:07;;;;;;;13.02;11.73;;;;;;;15.16;100.00;96762.03;4961180;28;20053;-61
2023/08/29 10:40:38;;;;;;;13.88;12.45;;;;;;;15.31;100.00;96766.44;4965416;28;20630;-61
2023/08/29 10:43:22;;;;;;;13.30;11.27;;;;;;;15.67;100.00;96761.47;4961706;28;20102;-60
2023/08/29 10:45:53;;;;;;;11.52;10.43;;;;;;;15.68;100.00;96755.72;4964584;28;20051;-61
2023/08/29 10:48:21;;;;;;;;;;;;;;;15.85;100.00;96748.88;4962635;28;20622;-61
2023/08/29 10:51:08;;;;;;;14.13;10.75;;;;;;;15.94;100.00;96749.81;4963847;28;20039;-60
2023/08/29 10:53:43;;;;;;;11.23;9.95;;;;;;;16.06;100.00;96752.03;4977683;28;20051;-60
2023/08/29 10:56:09;;;;;;;10.90;9.80;;;;;;;16.37;100.00;96745.16;4964364;28;20133;-60
2023/08/29 10:58:40;;;;;;;10.48;9.43;;;;;;;16.51;100.00;96736.91;4963796;28;20047;-62
2023/08/29 11:01:27;;;;;;;10.40;9.38;;;;;;;16.44;99.60;96740.06;4975075;28;20069;-63
2023/08/29 11:03:59;;;;;;;9.93;8.77;;;;;;;16.50;100.00;96730.66;4961187;28;21847;-63
2023/08/29 11:06:46;;;;;;;11.73;8.82;;;;;;;16.45;98.44;96730.78;4958675;28;20724;-60
2023/08/29 11:09:23;;;;;;;10.93;9.02;;;;;;;16.23;100.00;96729.59;4960834;28;20066;-63
2023/08/29 11:12:10;;;;;;;10.65;9.18;;;;;;;16.32;100.00;96734.31;4974242;28;20039;-61
2023/08/29 11:14:52;;;;;;;10.25;9.25;;;;;;;16.32;100.00;96732.38;4984278;28;20043;-60
2023/08/29 11:17:23;;;;;;;9.32;8.43;;;;;;;16.40;100.00;96730.06;4980832;28;20197;-62
2023/08/29 11:19:58;;;;;;;10.25;9.25;;;;;;;16.46;99.40;96726.09;4969979;28;20039;-63
2023/08/29 11:22:28;;;;;;;10.05;9.07;;;;;;;16.48;97.60;96721.16;4963511;28;20045;-63
2023/08/29 11:24:55;;;;;;;9.60;8.60;;;;;;;16.41;100.00;96726.22;4967341;28;20466;-64